Aérodrome :
LOGIN :

S'inscrire | Disclaimer

   EN    FR    IT 

 










Légende :    VFR   VFR Marginal   IFR   IFR Intensif   IFR Très Intensif
Visi : 
Plafond : 
>= 8 km
>= 3000ft
5 à 8 km
1000 à 3000 ft
1500m à 5 km
500 à 1000 ft
800 à 1500m
200 à 500 ft
< 800m
< 200 ft
Symboles :   Orages  Brouillard  Fortes neiges  Fortes précipitations  Vent > 20 kt
SIGMETs :   Divers  Orages  Givrage  Turbulence  Onde Orograph.  Cendres Volcan.






- Altitude de l'aérodrome : 13 ft
- Code IATA : CEQ


LFMD - Cannes Mandelieu

DERNIER METAR :
  • 031730Z AUTO 23006KT 200V260 9999 BKN044 22/17 Q1006

METARs EXPIRÉS :
  • 031700Z AUTO 20007KT 9999 BKN042 BKN050 23/16 Q1006
  • 031630Z AUTO 18008KT 9999 FEW034 SCT043 23/16 Q1006
  • 031600Z AUTO 17011KT CAVOK 23/16 Q1007
  • 031530Z AUTO 16008KT 110V190 9999 FEW030 SCT210 BKN240 24/17 Q1007
  • 031500Z AUTO 18009KT 9999 ///CB 23/17 Q1007

Prévision TAF périmée.
ATIS : +33 4 93 48 73 23



MET'MAP, la Météo Aéronautique d'un coup d'oeil ! - Copyright ORBIFLY Décembre 2007 - Disclaimer

ORBIFLY MET'MAP TEAM :

Programmation & Développement : Alexandra Zaïnal
Sur une idée originale de : Baudouin d'Aumeries
Assistance à la programmation : Marc-Olivier Méhu
Soutien technique & logistique : Manuel Goepfert

Contact : metmap@orbifly.com




SOURCES & CREDITS :

   NOAA